sensor_id;sensor_type;location;lat;lon;timestamp;temperature;humidity
26595;DHT22;14238;49.496;8.154;2022-12-20T00:00:14;1.30;99.90
26595;DHT22;14238;49.496;8.154;2022-12-20T00:02:39;1.40;99.90
26595;DHT22;14238;49.496;8.154;2022-12-20T00:05:05;1.40;99.90
26595;DHT22;14238;49.496;8.154;2022-12-20T00:07:31;1.30;99.90
26595;DHT22;14238;49.496;8.154;2022-12-20T00:09:57;1.30;99.90
26595;DHT22;14238;49.496;8.154;2022-12-20T00:12:23;1.20;99.90
26595;DHT22;14238;49.496;8.154;2022-12-20T00:14:48;1.20;99.90
26595;DHT22;14238;49.496;8.154;2022-12-20T00:17:14;1.30;99.90
26595;DHT22;14238;49.496;8.154;2022-12-20T00:19:39;1.20;99.90
26595;DHT22;14238;49.496;8.154;2022-12-20T00:22:06;1.20;99.90
26595;DHT22;14238;49.496;8.154;2022-12-20T00:24:31;1.20;99.90
26595;DHT22;14238;49.496;8.154;2022-12-20T00:26:57;1.10;99.90
26595;DHT22;14238;49.496;8.154;2022-12-20T00:29:23;1.20;99.90
26595;DHT22;14238;49.496;8.154;2022-12-20T00:31:48;1.20;99.90
26595;DHT22;14238;49.496;8.154;2022-12-20T00:34:14;1.20;99.90
26595;DHT22;14238;49.496;8.154;2022-12-20T00:36:40;1.30;99.90
26595;DHT22;14238;49.496;8.154;2022-12-20T00:39:05;1.40;99.90
26595;DHT22;14238;49.496;8.154;2022-12-20T00:41:32;1.50;99.90
26595;DHT22;14238;49.496;8.154;2022-12-20T00:43:59;1.40;99.90
26595;DHT22;14238;49.496;8.154;2022-12-20T00:46:25;1.40;99.90
26595;DHT22;14238;49.496;8.154;2022-12-20T00:48:53;1.30;99.90
26595;DHT22;14238;49.496;8.154;2022-12-20T00:51:23;1.30;99.90
26595;DHT22;14238;49.496;8.154;2022-12-20T00:53:49;1.20;99.90
26595;DHT22;14238;49.496;8.154;2022-12-20T00:56:15;1.20;99.90
26595;DHT22;14238;49.496;8.154;2022-12-20T00:58:41;1.10;99.90
26595;DHT22;14238;49.496;8.154;2022-12-20T01:01:22;1.10;99.90
26595;DHT22;14238;49.496;8.154;2022-12-20T01:03:49;1.00;99.90
26595;DHT22;14238;49.496;8.154;2022-12-20T01:06:15;1.10;99.90
26595;DHT22;14238;49.496;8.154;2022-12-20T01:08:41;1.10;99.90
26595;DHT22;14238;49.496;8.154;2022-12-20T01:11:18;1.20;99.90
26595;DHT22;14238;49.496;8.154;2022-12-20T01:13:47;1.20;99.90
26595;DHT22;14238;49.496;8.154;2022-12-20T01:16:21;1.30;99.90
26595;DHT22;14238;49.496;8.154;2022-12-20T01:18:48;1.40;99.90
26595;DHT22;14238;49.496;8.154;2022-12-20T01:21:15;1.30;99.90
26595;DHT22;14238;49.496;8.154;2022-12-20T01:23:41;1.30;99.90
26595;DHT22;14238;49.496;8.154;2022-12-20T01:26:13;1.20;99.90
26595;DHT22;14238;49.496;8.154;2022-12-20T01:28:41;1.20;99.90
26595;DHT22;14238;49.496;8.154;2022-12-20T01:31:08;1.20;99.90
26595;DHT22;14238;49.496;8.154;2022-12-20T01:33:35;1.30;99.90
26595;DHT22;14238;49.496;8.154;2022-12-20T01:36:07;1.30;99.90
26595;DHT22;14238;49.496;8.154;2022-12-20T01:38:35;1.30;99.90
26595;DHT22;14238;49.496;8.154;2022-12-20T01:41:01;1.30;99.90
26595;DHT22;14238;49.496;8.154;2022-12-20T01:43:49;1.20;99.90
26595;DHT22;14238;49.496;8.154;2022-12-20T01:46:16;1.20;99.90
26595;DHT22;14238;49.496;8.154;2022-12-20T01:48:46;1.20;99.90
26595;DHT22;14238;49.496;8.154;2022-12-20T01:51:12;1.20;99.90
26595;DHT22;14238;49.496;8.154;2022-12-20T01:53:39;1.20;99.90
26595;DHT22;14238;49.496;8.154;2022-12-20T01:56:06;1.20;99.90
26595;DHT22;14238;49.496;8.154;2022-12-20T01:58:33;1.20;99.90
26595;DHT22;14238;49.496;8.154;2022-12-20T02:01:00;1.20;99.90
26595;DHT22;14238;49.496;8.154;2022-12-20T02:03:26;1.30;99.90
26595;DHT22;14238;49.496;8.154;2022-12-20T02:05:53;1.40;99.90
26595;DHT22;14238;49.496;8.154;2022-12-20T02:08:19;1.50;99.90
26595;DHT22;14238;49.496;8.154;2022-12-20T02:11:15;1.60;99.90
26595;DHT22;14238;49.496;8.154;2022-12-20T02:16:27;1.40;99.90
26595;DHT22;14238;49.496;8.154;2022-12-20T02:19:16;1.40;99.90
26595;DHT22;14238;49.496;8.154;2022-12-20T02:25:05;1.30;99.90
26595;DHT22;14238;49.496;8.154;2022-12-20T02:30:52;1.30;99.90
26595;DHT22;14238;49.496;8.154;2022-12-20T02:33:20;1.30;99.90
26595;DHT22;14238;49.496;8.154;2022-12-20T02:35:48;1.30;99.90
26595;DHT22;14238;49.496;8.154;2022-12-20T02:38:36;1.40;99.90
26595;DHT22;14238;49.496;8.154;2022-12-20T02:41:04;1.40;99.90
26595;DHT22;14238;49.496;8.154;2022-12-20T02:43:31;1.30;99.90
26595;DHT22;14238;49.496;8.154;2022-12-20T02:46:18;1.20;99.90
26595;DHT22;14238;49.496;8.154;2022-12-20T02:48:46;1.30;99.90
26595;DHT22;14238;49.496;8.154;2022-12-20T02:51:14;1.30;99.90
26595;DHT22;14238;49.496;8.154;2022-12-20T02:53:41;1.30;99.90
26595;DHT22;14238;49.496;8.154;2022-12-20T02:56:27;1.40;99.90
26595;DHT22;14238;49.496;8.154;2022-12-20T02:59:01;1.40;99.90
26595;DHT22;14238;49.496;8.154;2022-12-20T03:01:30;1.40;99.90
26595;DHT22;14238;49.496;8.154;2022-12-20T03:03:58;1.50;99.90
26595;DHT22;14238;49.496;8.154;2022-12-20T03:06:24;1.50;99.90
26595;DHT22;14238;49.496;8.154;2022-12-20T03:08:50;1.50;99.90
26595;DHT22;14238;49.496;8.154;2022-12-20T03:11:15;1.50;99.90
26595;DHT22;14238;49.496;8.154;2022-12-20T03:13:41;1.50;99.90
26595;DHT22;14238;49.496;8.154;2022-12-20T03:16:07;1.50;99.90
26595;DHT22;14238;49.496;8.154;2022-12-20T03:18:33;1.50;99.90
26595;DHT22;14238;49.496;8.154;2022-12-20T03:20:59;1.50;99.90
26595;DHT22;14238;49.496;8.154;2022-12-20T03:23:25;1.50;99.90
26595;DHT22;14238;49.496;8.154;2022-12-20T03:25:51;1.50;99.90
26595;DHT22;14238;49.496;8.154;2022-12-20T03:28:16;1.50;99.90
26595;DHT22;14238;49.496;8.154;2022-12-20T03:30:42;1.60;99.90
26595;DHT22;14238;49.496;8.154;2022-12-20T03:33:07;1.60;99.90
26595;DHT22;14238;49.496;8.154;2022-12-20T03:35:33;1.70;99.90
26595;DHT22;14238;49.496;8.154;2022-12-20T03:37:58;1.80;99.90
26595;DHT22;14238;49.496;8.154;2022-12-20T03:40:24;1.80;99.90
26595;DHT22;14238;49.496;8.154;2022-12-20T03:42:50;1.70;99.90
26595;DHT22;14238;49.496;8.154;2022-12-20T03:45:15;1.80;99.90
26595;DHT22;14238;49.496;8.154;2022-12-20T03:47:41;1.80;99.90
26595;DHT22;14238;49.496;8.154;2022-12-20T03:50:07;1.90;99.90
26595;DHT22;14238;49.496;8.154;2022-12-20T03:52:33;2.00;99.90
26595;DHT22;14238;49.496;8.154;2022-12-20T03:54:59;2.00;99.90
26595;DHT22;14238;49.496;8.154;2022-12-20T03:57:24;2.00;99.90
26595;DHT22;14238;49.496;8.154;2022-12-20T03:59:50;2.10;99.90
26595;DHT22;14238;49.496;8.154;2022-12-20T04:02:15;2.00;99.90
26595;DHT22;14238;49.496;8.154;2022-12-20T04:04:41;2.00;99.90
26595;DHT22;14238;49.496;8.154;2022-12-20T04:07:07;2.00;99.90
26595;DHT22;14238;49.496;8.154;2022-12-20T04:09:33;2.10;99.90
26595;DHT22;14238;49.496;8.154;2022-12-20T04:11:59;2.00;99.90
26595;DHT22;14238;49.496;8.154;2022-12-20T04:14:25;2.00;99.90
26595;DHT22;14238;49.496;8.154;2022-12-20T04:16:50;2.00;99.90
26595;DHT22;14238;49.496;8.154;2022-12-20T04:19:16;2.10;99.90
26595;DHT22;14238;49.496;8.154;2022-12-20T04:21:41;2.10;99.90
26595;DHT22;14238;49.496;8.154;2022-12-20T04:24:07;2.10;99.90
26595;DHT22;14238;49.496;8.154;2022-12-20T04:26:33;2.20;99.90
26595;DHT22;14238;49.496;8.154;2022-12-20T04:28:58;2.00;99.90
26595;DHT22;14238;49.496;8.154;2022-12-20T04:31:24;1.90;99.90
26595;DHT22;14238;49.496;8.154;2022-12-20T04:33:49;1.90;99.90
26595;DHT22;14238;49.496;8.154;2022-12-20T04:36:15;1.90;99.90
26595;DHT22;14238;49.496;8.154;2022-12-20T04:38:41;2.00;99.90
26595;DHT22;14238;49.496;8.154;2022-12-20T04:41:06;2.00;99.90
26595;DHT22;14238;49.496;8.154;2022-12-20T04:43:32;2.10;99.90
26595;DHT22;14238;49.496;8.154;2022-12-20T04:45:57;2.10;99.90
26595;DHT22;14238;49.496;8.154;2022-12-20T04:48:25;2.10;99.90
26595;DHT22;14238;49.496;8.154;2022-12-20T04:50:53;2.10;99.90
26595;DHT22;14238;49.496;8.154;2022-12-20T04:53:18;2.20;99.90
26595;DHT22;14238;49.496;8.154;2022-12-20T04:56:03;2.30;99.90
26595;DHT22;14238;49.496;8.154;2022-12-20T04:58:29;2.30;99.90
26595;DHT22;14238;49.496;8.154;2022-12-20T05:00:54;2.30;99.90
26595;DHT22;14238;49.496;8.154;2022-12-20T05:03:21;2.30;99.90
26595;DHT22;14238;49.496;8.154;2022-12-20T05:05:47;2.20;99.90
26595;DHT22;14238;49.496;8.154;2022-12-20T05:08:13;2.20;99.90
26595;DHT22;14238;49.496;8.154;2022-12-20T05:10:39;2.20;99.90
26595;DHT22;14238;49.496;8.154;2022-12-20T05:13:05;2.20;99.90
26595;DHT22;14238;49.496;8.154;2022-12-20T05:15:31;2.20;99.90
26595;DHT22;14238;49.496;8.154;2022-12-20T05:17:57;2.10;99.90
26595;DHT22;14238;49.496;8.154;2022-12-20T05:20:28;2.00;99.90
26595;DHT22;14238;49.496;8.154;2022-12-20T05:22:54;2.10;99.90
26595;DHT22;14238;49.496;8.154;2022-12-20T05:25:43;2.10;99.90
26595;DHT22;14238;49.496;8.154;2022-12-20T05:28:28;2.10;99.90
26595;DHT22;14238;49.496;8.154;2022-12-20T05:30:54;2.20;99.90
26595;DHT22;14238;49.496;8.154;2022-12-20T05:33:19;2.30;99.90
26595;DHT22;14238;49.496;8.154;2022-12-20T05:35:45;2.30;99.90
26595;DHT22;14238;49.496;8.154;2022-12-20T05:38:11;2.30;99.90
26595;DHT22;14238;49.496;8.154;2022-12-20T05:40:38;2.40;99.90
26595;DHT22;14238;49.496;8.154;2022-12-20T05:43:04;2.40;99.90
26595;DHT22;14238;49.496;8.154;2022-12-20T05:45:31;2.40;99.90
26595;DHT22;14238;49.496;8.154;2022-12-20T05:47:57;2.30;99.90
26595;DHT22;14238;49.496;8.154;2022-12-20T05:50:22;2.20;99.90
26595;DHT22;14238;49.496;8.154;2022-12-20T05:52:48;2.20;99.90
26595;DHT22;14238;49.496;8.154;2022-12-20T05:55:14;2.30;99.90
26595;DHT22;14238;49.496;8.154;2022-12-20T05:57:39;2.20;99.90
26595;DHT22;14238;49.496;8.154;2022-12-20T06:00:06;2.20;99.90
26595;DHT22;14238;49.496;8.154;2022-12-20T06:02:31;2.10;99.90
26595;DHT22;14238;49.496;8.154;2022-12-20T06:04:57;2.00;99.90
26595;DHT22;14238;49.496;8.154;2022-12-20T06:07:24;2.10;99.90
26595;DHT22;14238;49.496;8.154;2022-12-20T06:09:50;2.00;99.90
26595;DHT22;14238;49.496;8.154;2022-12-20T06:12:15;2.00;99.90
26595;DHT22;14238;49.496;8.154;2022-12-20T06:14:41;2.10;99.90
26595;DHT22;14238;49.496;8.154;2022-12-20T06:17:07;2.10;99.90
26595;DHT22;14238;49.496;8.154;2022-12-20T06:19:32;2.20;99.90
26595;DHT22;14238;49.496;8.154;2022-12-20T06:21:58;2.20;99.90
26595;DHT22;14238;49.496;8.154;2022-12-20T06:24:25;2.20;99.90
26595;DHT22;14238;49.496;8.154;2022-12-20T06:26:51;2.20;99.90
26595;DHT22;14238;49.496;8.154;2022-12-20T06:29:17;2.10;99.90
26595;DHT22;14238;49.496;8.154;2022-12-20T06:31:45;2.10;99.90
26595;DHT22;14238;49.496;8.154;2022-12-20T06:34:11;2.10;99.90
26595;DHT22;14238;49.496;8.154;2022-12-20T06:36:36;2.20;99.90
26595;DHT22;14238;49.496;8.154;2022-12-20T06:39:02;2.20;99.90
26595;DHT22;14238;49.496;8.154;2022-12-20T06:41:28;2.30;99.90
26595;DHT22;14238;49.496;8.154;2022-12-20T06:43:53;2.40;99.90
26595;DHT22;14238;49.496;8.154;2022-12-20T06:46:19;2.40;99.90
26595;DHT22;14238;49.496;8.154;2022-12-20T06:48:45;2.40;99.90
26595;DHT22;14238;49.496;8.154;2022-12-20T06:51:10;2.40;99.90
26595;DHT22;14238;49.496;8.154;2022-12-20T06:53:36;2.40;99.90
26595;DHT22;14238;49.496;8.154;2022-12-20T06:56:01;2.40;99.90
26595;DHT22;14238;49.496;8.154;2022-12-20T06:58:27;2.40;99.90
26595;DHT22;14238;49.496;8.154;2022-12-20T07:00:53;2.30;99.90
26595;DHT22;14238;49.496;8.154;2022-12-20T07:03:19;2.40;99.90
26595;DHT22;14238;49.496;8.154;2022-12-20T07:05:53;2.50;99.90
26595;DHT22;14238;49.496;8.154;2022-12-20T07:08:20;2.40;99.90
26595;DHT22;14238;49.496;8.154;2022-12-20T07:10:45;2.40;99.90
26595;DHT22;14238;49.496;8.154;2022-12-20T07:13:11;2.40;99.90
26595;DHT22;14238;49.496;8.154;2022-12-20T07:15:37;2.30;99.90
26595;DHT22;14238;49.496;8.154;2022-12-20T07:18:02;2.30;99.90
26595;DHT22;14238;49.496;8.154;2022-12-20T07:20:29;2.30;99.90
26595;DHT22;14238;49.496;8.154;2022-12-20T07:22:54;2.30;99.90
26595;DHT22;14238;49.496;8.154;2022-12-20T07:25:20;2.40;99.90
26595;DHT22;14238;49.496;8.154;2022-12-20T07:27:47;2.40;99.90
26595;DHT22;14238;49.496;8.154;2022-12-20T07:30:14;2.40;99.90
26595;DHT22;14238;49.496;8.154;2022-12-20T07:32:40;2.50;99.90
26595;DHT22;14238;49.496;8.154;2022-12-20T07:35:06;2.50;99.90
26595;DHT22;14238;49.496;8.154;2022-12-20T07:37:32;2.50;99.90
26595;DHT22;14238;49.496;8.154;2022-12-20T07:39:57;2.40;99.90
26595;DHT22;14238;49.496;8.154;2022-12-20T07:42:23;2.40;99.90
26595;DHT22;14238;49.496;8.154;2022-12-20T07:44:48;2.40;99.90
26595;DHT22;14238;49.496;8.154;2022-12-20T07:47:14;2.40;99.90
26595;DHT22;14238;49.496;8.154;2022-12-20T07:49:39;2.50;99.90
26595;DHT22;14238;49.496;8.154;2022-12-20T07:52:06;2.40;99.90
26595;DHT22;14238;49.496;8.154;2022-12-20T07:54:35;2.40;99.90
26595;DHT22;14238;49.496;8.154;2022-12-20T07:57:07;2.40;99.90
26595;DHT22;14238;49.496;8.154;2022-12-20T07:59:39;2.40;99.90
26595;DHT22;14238;49.496;8.154;2022-12-20T08:02:09;2.40;99.90
26595;DHT22;14238;49.496;8.154;2022-12-20T08:04:36;2.40;99.90
26595;DHT22;14238;49.496;8.154;2022-12-20T08:07:02;2.40;99.90
26595;DHT22;14238;49.496;8.154;2022-12-20T08:09:30;2.40;99.90
26595;DHT22;14238;49.496;8.154;2022-12-20T08:11:59;2.30;99.90
26595;DHT22;14238;49.496;8.154;2022-12-20T08:14:25;2.40;99.90
26595;DHT22;14238;49.496;8.154;2022-12-20T08:16:51;2.50;99.90
26595;DHT22;14238;49.496;8.154;2022-12-20T08:19:17;2.50;99.90
26595;DHT22;14238;49.496;8.154;2022-12-20T08:21:42;2.60;99.90
26595;DHT22;14238;49.496;8.154;2022-12-20T08:24:08;2.60;99.90
26595;DHT22;14238;49.496;8.154;2022-12-20T08:26:38;2.60;99.90
26595;DHT22;14238;49.496;8.154;2022-12-20T08:29:04;2.60;99.90
26595;DHT22;14238;49.496;8.154;2022-12-20T08:31:29;2.60;99.90
26595;DHT22;14238;49.496;8.154;2022-12-20T08:33:55;2.60;99.90
26595;DHT22;14238;49.496;8.154;2022-12-20T08:36:20;2.60;99.90
26595;DHT22;14238;49.496;8.154;2022-12-20T08:38:46;2.70;99.90
26595;DHT22;14238;49.496;8.154;2022-12-20T08:41:13;2.70;99.90
26595;DHT22;14238;49.496;8.154;2022-12-20T08:43:39;2.70;99.90
26595;DHT22;14238;49.496;8.154;2022-12-20T08:46:06;2.80;99.90
26595;DHT22;14238;49.496;8.154;2022-12-20T08:48:32;2.80;99.90
26595;DHT22;14238;49.496;8.154;2022-12-20T08:51:00;2.80;99.90
26595;DHT22;14238;49.496;8.154;2022-12-20T08:53:27;2.90;99.90
26595;DHT22;14238;49.496;8.154;2022-12-20T08:56:01;2.90;99.90
26595;DHT22;14238;49.496;8.154;2022-12-20T08:58:26;2.90;99.90
26595;DHT22;14238;49.496;8.154;2022-12-20T09:00:52;2.90;99.90
26595;DHT22;14238;49.496;8.154;2022-12-20T09:03:18;2.90;99.90
26595;DHT22;14238;49.496;8.154;2022-12-20T09:05:45;2.90;99.90
26595;DHT22;14238;49.496;8.154;2022-12-20T09:08:10;2.90;99.90
26595;DHT22;14238;49.496;8.154;2022-12-20T09:10:36;2.90;99.90
26595;DHT22;14238;49.496;8.154;2022-12-20T09:13:01;3.00;99.90
26595;DHT22;14238;49.496;8.154;2022-12-20T09:15:27;3.00;99.90
26595;DHT22;14238;49.496;8.154;2022-12-20T09:17:53;3.10;99.90
26595;DHT22;14238;49.496;8.154;2022-12-20T09:20:19;3.10;99.90
26595;DHT22;14238;49.496;8.154;2022-12-20T09:22:45;3.20;99.90
26595;DHT22;14238;49.496;8.154;2022-12-20T09:25:11;3.30;99.90
26595;DHT22;14238;49.496;8.154;2022-12-20T09:27:36;3.30;99.90
26595;DHT22;14238;49.496;8.154;2022-12-20T09:30:03;3.40;99.90
26595;DHT22;14238;49.496;8.154;2022-12-20T09:32:28;3.60;99.90
26595;DHT22;14238;49.496;8.154;2022-12-20T09:34:54;3.80;99.90
26595;DHT22;14238;49.496;8.154;2022-12-20T09:37:20;3.80;99.90
26595;DHT22;14238;49.496;8.154;2022-12-20T09:39:48;3.90;99.90
26595;DHT22;14238;49.496;8.154;2022-12-20T09:42:15;3.90;99.90
26595;DHT22;14238;49.496;8.154;2022-12-20T09:44:41;3.90;99.90
26595;DHT22;14238;49.496;8.154;2022-12-20T09:47:13;4.00;99.90
26595;DHT22;14238;49.496;8.154;2022-12-20T09:49:43;4.00;99.90
26595;DHT22;14238;49.496;8.154;2022-12-20T09:58:24;4.10;99.90
26595;DHT22;14238;49.496;8.154;2022-12-20T10:00:53;4.00;99.90
26595;DHT22;14238;49.496;8.154;2022-12-20T10:03:21;4.00;99.90
26595;DHT22;14238;49.496;8.154;2022-12-20T10:05:53;4.00;99.90
26595;DHT22;14238;49.496;8.154;2022-12-20T10:16:59;4.10;99.90
26595;DHT22;14238;49.496;8.154;2022-12-20T10:22:36;4.10;99.90
26595;DHT22;14238;49.496;8.154;2022-12-20T10:25:18;4.10;99.90
26595;DHT22;14238;49.496;8.154;2022-12-20T10:27:46;4.30;99.90
26595;DHT22;14238;49.496;8.154;2022-12-20T10:30:14;4.40;99.90
26595;DHT22;14238;49.496;8.154;2022-12-20T10:32:44;4.50;99.90
26595;DHT22;14238;49.496;8.154;2022-12-20T10:37:36;4.60;99.90
26595;DHT22;14238;49.496;8.154;2022-12-20T10:40:02;4.80;99.90
26595;DHT22;14238;49.496;8.154;2022-12-20T10:42:39;4.90;99.90
26595;DHT22;14238;49.496;8.154;2022-12-20T10:47:44;5.10;99.90
26595;DHT22;14238;49.496;8.154;2022-12-20T10:50:21;5.20;99.90
26595;DHT22;14238;49.496;8.154;2022-12-20T10:55:34;5.70;99.90
26595;DHT22;14238;49.496;8.154;2022-12-20T10:58:05;5.80;99.90
26595;DHT22;14238;49.496;8.154;2022-12-20T11:00:36;6.00;99.90
26595;DHT22;14238;49.496;8.154;2022-12-20T11:03:09;6.10;99.90
26595;DHT22;14238;49.496;8.154;2022-12-20T11:05:36;6.50;99.90
26595;DHT22;14238;49.496;8.154;2022-12-20T11:08:16;6.50;99.90
26595;DHT22;14238;49.496;8.154;2022-12-20T11:10:43;7.20;99.90
26595;DHT22;14238;49.496;8.154;2022-12-20T11:13:22;8.00;99.90
26595;DHT22;14238;49.496;8.154;2022-12-20T11:15:52;8.70;99.90
26595;DHT22;14238;49.496;8.154;2022-12-20T11:21:35;9.40;99.90
26595;DHT22;14238;49.496;8.154;2022-12-20T11:24:33;8.80;99.90
26595;DHT22;14238;49.496;8.154;2022-12-20T11:30:18;8.40;99.90
26595;DHT22;14238;49.496;8.154;2022-12-20T11:35:31;7.60;99.90
26595;DHT22;14238;49.496;8.154;2022-12-20T11:55:18;6.20;99.90
26595;DHT22;14238;49.496;8.154;2022-12-20T11:57:59;6.20;99.90
26595;DHT22;14238;49.496;8.154;2022-12-20T12:00:26;6.20;99.90
26595;DHT22;14238;49.496;8.154;2022-12-20T12:02:58;6.10;99.90
26595;DHT22;14238;49.496;8.154;2022-12-20T12:05:34;6.20;99.90
26595;DHT22;14238;49.496;8.154;2022-12-20T12:08:08;6.20;99.90
26595;DHT22;14238;49.496;8.154;2022-12-20T12:10:40;6.20;99.90
26595;DHT22;14238;49.496;8.154;2022-12-20T12:13:14;6.30;99.90
26595;DHT22;14238;49.496;8.154;2022-12-20T12:15:56;6.40;99.90
26595;DHT22;14238;49.496;8.154;2022-12-20T12:18:30;6.50;99.90
26595;DHT22;14238;49.496;8.154;2022-12-20T12:26:24;8.50;99.90
26595;DHT22;14238;49.496;8.154;2022-12-20T12:28:57;9.50;99.90
26595;DHT22;14238;49.496;8.154;2022-12-20T12:37:37;11.90;99.90
26595;DHT22;14238;49.496;8.154;2022-12-20T12:40:13;11.80;99.90
26595;DHT22;14238;49.496;8.154;2022-12-20T12:45:46;8.80;99.90
26595;DHT22;14238;49.496;8.154;2022-12-20T12:51:05;8.00;99.90
26595;DHT22;14238;49.496;8.154;2022-12-20T12:53:35;7.70;99.90
26595;DHT22;14238;49.496;8.154;2022-12-20T13:04:53;7.60;99.90
26595;DHT22;14238;49.496;8.154;2022-12-20T13:07:27;7.50;99.90
26595;DHT22;14238;49.496;8.154;2022-12-20T13:09:53;7.40;99.90
26595;DHT22;14238;49.496;8.154;2022-12-20T13:20:22;7.10;99.90
26595;DHT22;14238;49.496;8.154;2022-12-20T13:30:41;7.00;99.90
26595;DHT22;14238;49.496;8.154;2022-12-20T13:39:00;7.00;99.90
26595;DHT22;14238;49.496;8.154;2022-12-20T13:41:39;7.00;99.90
26595;DHT22;14238;49.496;8.154;2022-12-20T13:44:27;6.90;99.90
26595;DHT22;14238;49.496;8.154;2022-12-20T13:49:41;6.90;99.90
26595;DHT22;14238;49.496;8.154;2022-12-20T13:54:44;6.90;99.90
26595;DHT22;14238;49.496;8.154;2022-12-20T13:57:31;6.90;99.90
26595;DHT22;14238;49.496;8.154;2022-12-20T14:00:05;7.10;99.90
26595;DHT22;14238;49.496;8.154;2022-12-20T14:02:40;7.10;99.90
26595;DHT22;14238;49.496;8.154;2022-12-20T14:05:14;7.10;99.90
26595;DHT22;14238;49.496;8.154;2022-12-20T14:07:41;7.10;99.90
26595;DHT22;14238;49.496;8.154;2022-12-20T14:10:21;7.20;99.90
26595;DHT22;14238;49.496;8.154;2022-12-20T14:12:50;7.30;99.90
26595;DHT22;14238;49.496;8.154;2022-12-20T14:15:29;7.40;99.90
26595;DHT22;14238;49.496;8.154;2022-12-20T14:17:54;7.70;99.90
26595;DHT22;14238;49.496;8.154;2022-12-20T14:20:28;7.80;99.90
26595;DHT22;14238;49.496;8.154;2022-12-20T14:25:55;7.80;99.90
26595;DHT22;14238;49.496;8.154;2022-12-20T14:28:26;7.60;99.90
26595;DHT22;14238;49.496;8.154;2022-12-20T14:30:52;7.60;99.90
26595;DHT22;14238;49.496;8.154;2022-12-20T14:33:28;7.40;99.90
26595;DHT22;14238;49.496;8.154;2022-12-20T14:35:54;7.20;99.90
26595;DHT22;14238;49.496;8.154;2022-12-20T14:38:28;7.10;99.90
26595;DHT22;14238;49.496;8.154;2022-12-20T14:40:54;7.00;99.90
26595;DHT22;14238;49.496;8.154;2022-12-20T14:43:34;6.90;99.90
26595;DHT22;14238;49.496;8.154;2022-12-20T14:46:19;6.80;99.90
26595;DHT22;14238;49.496;8.154;2022-12-20T14:48:46;6.70;99.90
26595;DHT22;14238;49.496;8.154;2022-12-20T14:51:18;6.60;99.90
26595;DHT22;14238;49.496;8.154;2022-12-20T14:53:47;6.60;99.90
26595;DHT22;14238;49.496;8.154;2022-12-20T14:56:17;6.60;99.90
26595;DHT22;14238;49.496;8.154;2022-12-20T14:58:43;6.50;99.90
26595;DHT22;14238;49.496;8.154;2022-12-20T15:01:24;6.50;99.90
26595;DHT22;14238;49.496;8.154;2022-12-20T15:03:57;6.60;99.90
26595;DHT22;14238;49.496;8.154;2022-12-20T15:06:42;6.60;99.90
26595;DHT22;14238;49.496;8.154;2022-12-20T15:09:08;6.60;99.90
26595;DHT22;14238;49.496;8.154;2022-12-20T15:11:35;6.50;99.90
26595;DHT22;14238;49.496;8.154;2022-12-20T15:14:02;6.40;99.90
26595;DHT22;14238;49.496;8.154;2022-12-20T15:16:34;6.40;99.90
26595;DHT22;14238;49.496;8.154;2022-12-20T15:19:01;6.30;99.90
26595;DHT22;14238;49.496;8.154;2022-12-20T15:21:35;6.20;99.90
26595;DHT22;14238;49.496;8.154;2022-12-20T15:24:05;6.20;99.90
26595;DHT22;14238;49.496;8.154;2022-12-20T15:26:34;6.20;99.90
26595;DHT22;14238;49.496;8.154;2022-12-20T15:29:00;6.10;99.90
26595;DHT22;14238;49.496;8.154;2022-12-20T15:31:27;6.00;99.90
26595;DHT22;14238;49.496;8.154;2022-12-20T15:33:53;6.00;99.90
26595;DHT22;14238;49.496;8.154;2022-12-20T15:36:25;5.90;99.90
26595;DHT22;14238;49.496;8.154;2022-12-20T15:38:52;5.80;99.90
26595;DHT22;14238;49.496;8.154;2022-12-20T15:41:27;5.80;99.90
26595;DHT22;14238;49.496;8.154;2022-12-20T15:43:56;5.80;99.90
26595;DHT22;14238;49.496;8.154;2022-12-20T15:46:22;5.90;99.90
26595;DHT22;14238;49.496;8.154;2022-12-20T15:48:48;5.80;99.90
26595;DHT22;14238;49.496;8.154;2022-12-20T15:51:19;5.70;99.90
26595;DHT22;14238;49.496;8.154;2022-12-20T15:53:46;5.70;99.90
26595;DHT22;14238;49.496;8.154;2022-12-20T15:56:20;5.60;99.90
26595;DHT22;14238;49.496;8.154;2022-12-20T15:58:46;5.60;99.90
26595;DHT22;14238;49.496;8.154;2022-12-20T16:01:36;5.60;99.90
26595;DHT22;14238;49.496;8.154;2022-12-20T16:04:02;5.50;99.90
26595;DHT22;14238;49.496;8.154;2022-12-20T16:06:28;5.60;99.90
26595;DHT22;14238;49.496;8.154;2022-12-20T16:08:53;5.50;99.90
26595;DHT22;14238;49.496;8.154;2022-12-20T16:11:27;5.40;99.90
26595;DHT22;14238;49.496;8.154;2022-12-20T16:13:54;5.40;99.90
26595;DHT22;14238;49.496;8.154;2022-12-20T16:16:22;5.40;99.90
26595;DHT22;14238;49.496;8.154;2022-12-20T16:18:48;5.50;99.90
26595;DHT22;14238;49.496;8.154;2022-12-20T16:21:22;5.50;99.90
26595;DHT22;14238;49.496;8.154;2022-12-20T16:23:49;5.50;99.90
26595;DHT22;14238;49.496;8.154;2022-12-20T16:26:19;5.50;99.90
26595;DHT22;14238;49.496;8.154;2022-12-20T16:28:46;5.50;99.90
26595;DHT22;14238;49.496;8.154;2022-12-20T16:31:32;5.40;99.90
26595;DHT22;14238;49.496;8.154;2022-12-20T16:34:03;5.40;99.90
26595;DHT22;14238;49.496;8.154;2022-12-20T16:36:30;5.20;99.90
26595;DHT22;14238;49.496;8.154;2022-12-20T16:38:56;5.20;99.90
26595;DHT22;14238;49.496;8.154;2022-12-20T16:41:24;5.20;99.90
26595;DHT22;14238;49.496;8.154;2022-12-20T16:43:53;5.50;99.90
26595;DHT22;14238;49.496;8.154;2022-12-20T16:46:21;5.80;99.90
26595;DHT22;14238;49.496;8.154;2022-12-20T16:48:47;7.00;99.90
26595;DHT22;14238;49.496;8.154;2022-12-20T16:51:33;7.70;99.90
26595;DHT22;14238;49.496;8.154;2022-12-20T16:54:15;8.70;99.90
26595;DHT22;14238;49.496;8.154;2022-12-20T16:56:41;8.80;99.90
26595;DHT22;14238;49.496;8.154;2022-12-20T16:59:08;7.90;99.90
26595;DHT22;14238;49.496;8.154;2022-12-20T17:01:36;7.20;99.90
26595;DHT22;14238;49.496;8.154;2022-12-20T17:04:02;6.70;99.90
26595;DHT22;14238;49.496;8.154;2022-12-20T17:06:28;6.40;99.90
26595;DHT22;14238;49.496;8.154;2022-12-20T17:08:54;6.20;99.90
26595;DHT22;14238;49.496;8.154;2022-12-20T17:11:25;6.10;99.90
26595;DHT22;14238;49.496;8.154;2022-12-20T17:13:53;6.00;99.90
26595;DHT22;14238;49.496;8.154;2022-12-20T17:16:20;5.80;99.90
26595;DHT22;14238;49.496;8.154;2022-12-20T17:18:48;5.70;99.90
26595;DHT22;14238;49.496;8.154;2022-12-20T17:23:56;5.60;99.90
26595;DHT22;14238;49.496;8.154;2022-12-20T17:26:26;5.60;99.90
26595;DHT22;14238;49.496;8.154;2022-12-20T17:28:53;5.70;99.90
26595;DHT22;14238;49.496;8.154;2022-12-20T17:33:57;5.70;99.90
26595;DHT22;14238;49.496;8.154;2022-12-20T17:36:23;5.70;99.90
26595;DHT22;14238;49.496;8.154;2022-12-20T17:38:49;5.80;99.90
26595;DHT22;14238;49.496;8.154;2022-12-20T17:41:26;5.80;99.90
26595;DHT22;14238;49.496;8.154;2022-12-20T17:43:53;5.90;99.90
26595;DHT22;14238;49.496;8.154;2022-12-20T17:46:19;5.90;99.90
26595;DHT22;14238;49.496;8.154;2022-12-20T17:48:46;5.90;99.90
26595;DHT22;14238;49.496;8.154;2022-12-20T17:51:18;5.80;99.90
26595;DHT22;14238;49.496;8.154;2022-12-20T17:53:46;5.80;99.90
26595;DHT22;14238;49.496;8.154;2022-12-20T17:56:14;6.10;99.90